sensor_id;sensor_type;location;lat;lon;timestamp;P1;durP1;ratioP1;P2;durP2;ratioP2
30934;SDS011;51033;42.648;23.292;2022-08-19T00:01:12;4.70;;;3.38;;
30934;SDS011;51033;42.648;23.292;2022-08-19T00:03:38;4.00;;;3.63;;
30934;SDS011;51033;42.648;23.292;2022-08-19T00:06:03;3.45;;;3.15;;
30934;SDS011;51033;42.648;23.292;2022-08-19T00:08:29;4.85;;;3.88;;
30934;SDS011;51033;42.648;23.292;2022-08-19T00:10:54;4.07;;;3.63;;
30934;SDS011;51033;42.648;23.292;2022-08-19T00:13:20;3.95;;;3.65;;
30934;SDS011;51033;42.648;23.292;2022-08-19T00:15:45;3.95;;;3.33;;
30934;SDS011;51033;42.648;23.292;2022-08-19T00:18:10;4.65;;;3.10;;
30934;SDS011;51033;42.648;23.292;2022-08-19T00:20:36;3.03;;;2.72;;
30934;SDS011;51033;42.648;23.292;2022-08-19T00:23:05;3.78;;;3.40;;
30934;SDS011;51033;42.648;23.292;2022-08-19T00:25:32;3.45;;;3.15;;
30934;SDS011;51033;42.648;23.292;2022-08-19T00:27:58;3.45;;;3.15;;
30934;SDS011;51033;42.648;23.292;2022-08-19T00:30:24;3.45;;;3.15;;
30934;SDS011;51033;42.648;23.292;2022-08-19T00:32:50;5.32;;;3.97;;
30934;SDS011;51033;42.648;23.292;2022-08-19T00:35:16;4.10;;;3.70;;
30934;SDS011;51033;42.648;23.292;2022-08-19T00:37:42;4.50;;;4.07;;
30934;SDS011;51033;42.648;23.292;2022-08-19T00:40:08;4.30;;;3.90;;
30934;SDS011;51033;42.648;23.292;2022-08-19T00:42:36;4.15;;;3.40;;
30934;SDS011;51033;42.648;23.292;2022-08-19T00:45:02;4.13;;;3.22;;
30934;SDS011;51033;42.648;23.292;2022-08-19T00:47:36;3.90;;;3.50;;
30934;SDS011;51033;42.648;23.292;2022-08-19T00:50:01;3.75;;;3.45;;
30934;SDS011;51033;42.648;23.292;2022-08-19T00:52:31;3.65;;;3.30;;
30934;SDS011;51033;42.648;23.292;2022-08-19T00:55:00;4.00;;;3.50;;
30934;SDS011;51033;42.648;23.292;2022-08-19T00:57:30;3.60;;;3.22;;
30934;SDS011;51033;42.648;23.292;2022-08-19T01:00:00;5.65;;;3.70;;
30934;SDS011;51033;42.648;23.292;2022-08-19T01:02:27;3.97;;;3.60;;
30934;SDS011;51033;42.648;23.292;2022-08-19T01:04:53;4.10;;;3.70;;
30934;SDS011;51033;42.648;23.292;2022-08-19T01:07:19;6.15;;;4.38;;
30934;SDS011;51033;42.648;23.292;2022-08-19T01:09:45;5.57;;;3.22;;
30934;SDS011;51033;42.648;23.292;2022-08-19T01:12:10;3.88;;;3.47;;
30934;SDS011;51033;42.648;23.292;2022-08-19T01:14:36;4.50;;;3.75;;
30934;SDS011;51033;42.648;23.292;2022-08-19T01:17:05;4.93;;;3.20;;
30934;SDS011;51033;42.648;23.292;2022-08-19T01:19:35;5.22;;;3.53;;
30934;SDS011;51033;42.648;23.292;2022-08-19T01:24:51;3.72;;;3.25;;
30934;SDS011;51033;42.648;23.292;2022-08-19T01:27:17;5.15;;;3.78;;
30934;SDS011;51033;42.648;23.292;2022-08-19T01:29:43;4.68;;;4.25;;
30934;SDS011;51033;42.648;23.292;2022-08-19T01:32:11;4.50;;;3.60;;
30934;SDS011;51033;42.648;23.292;2022-08-19T01:34:39;5.35;;;3.80;;
30934;SDS011;51033;42.648;23.292;2022-08-19T01:37:11;5.30;;;4.20;;
30934;SDS011;51033;42.648;23.292;2022-08-19T01:39:37;3.92;;;3.40;;
30934;SDS011;51033;42.648;23.292;2022-08-19T01:42:05;4.70;;;3.95;;
30934;SDS011;51033;42.648;23.292;2022-08-19T01:44:36;6.63;;;4.22;;
30934;SDS011;51033;42.648;23.292;2022-08-19T01:47:02;4.35;;;3.95;;
30934;SDS011;51033;42.648;23.292;2022-08-19T01:49:29;4.80;;;4.05;;
30934;SDS011;51033;42.648;23.292;2022-08-19T01:51:54;4.45;;;3.80;;
30934;SDS011;51033;42.648;23.292;2022-08-19T01:54:21;5.35;;;3.78;;
30934;SDS011;51033;42.648;23.292;2022-08-19T01:56:47;7.22;;;4.22;;
30934;SDS011;51033;42.648;23.292;2022-08-19T01:59:14;5.70;;;4.80;;
30934;SDS011;51033;42.648;23.292;2022-08-19T02:01:42;4.43;;;3.90;;
30934;SDS011;51033;42.648;23.292;2022-08-19T02:04:08;9.68;;;3.63;;
30934;SDS011;51033;42.648;23.292;2022-08-19T02:06:33;3.95;;;3.58;;
30934;SDS011;51033;42.648;23.292;2022-08-19T02:08:59;3.88;;;3.47;;
30934;SDS011;51033;42.648;23.292;2022-08-19T02:11:27;3.67;;;3.30;;
30934;SDS011;51033;42.648;23.292;2022-08-19T02:13:56;5.43;;;3.33;;
30934;SDS011;51033;42.648;23.292;2022-08-19T02:16:22;5.97;;;3.45;;
30934;SDS011;51033;42.648;23.292;2022-08-19T02:18:48;6.13;;;3.58;;
30934;SDS011;51033;42.648;23.292;2022-08-19T02:21:15;4.75;;;4.05;;
30934;SDS011;51033;42.648;23.292;2022-08-19T02:23:41;3.67;;;3.30;;
30934;SDS011;51033;42.648;23.292;2022-08-19T02:26:07;4.07;;;3.67;;
30934;SDS011;51033;42.648;23.292;2022-08-19T02:28:34;5.03;;;3.67;;
30934;SDS011;51033;42.648;23.292;2022-08-19T02:30:59;5.25;;;3.97;;
30934;SDS011;51033;42.648;23.292;2022-08-19T02:33:25;3.88;;;3.20;;
30934;SDS011;51033;42.648;23.292;2022-08-19T02:35:51;3.80;;;3.33;;
30934;SDS011;51033;42.648;23.292;2022-08-19T02:38:17;5.03;;;4.03;;
30934;SDS011;51033;42.648;23.292;2022-08-19T02:40:58;8.63;;;3.80;;
30934;SDS011;51033;42.648;23.292;2022-08-19T02:43:26;4.57;;;3.45;;
30934;SDS011;51033;42.648;23.292;2022-08-19T02:45:53;4.47;;;4.07;;
30934;SDS011;51033;42.648;23.292;2022-08-19T02:48:20;4.30;;;3.90;;
30934;SDS011;51033;42.648;23.292;2022-08-19T02:50:47;3.75;;;3.45;;
30934;SDS011;51033;42.648;23.292;2022-08-19T02:53:23;5.53;;;4.05;;
30934;SDS011;51033;42.648;23.292;2022-08-19T02:55:51;4.20;;;3.35;;
30934;SDS011;51033;42.648;23.292;2022-08-19T02:58:17;4.18;;;3.55;;
30934;SDS011;51033;42.648;23.292;2022-08-19T03:00:45;4.95;;;4.45;;
30934;SDS011;51033;42.648;23.292;2022-08-19T03:03:12;4.85;;;3.72;;
30934;SDS011;51033;42.648;23.292;2022-08-19T03:05:38;7.15;;;4.50;;
30934;SDS011;51033;42.648;23.292;2022-08-19T03:08:04;9.90;;;4.25;;
30934;SDS011;51033;42.648;23.292;2022-08-19T03:10:31;6.65;;;4.47;;
30934;SDS011;51033;42.648;23.292;2022-08-19T03:12:57;4.75;;;4.22;;
30934;SDS011;51033;42.648;23.292;2022-08-19T03:15:22;5.55;;;4.95;;
30934;SDS011;51033;42.648;23.292;2022-08-19T03:17:47;5.47;;;4.40;;
30934;SDS011;51033;42.648;23.292;2022-08-19T03:20:13;5.35;;;4.80;;
30934;SDS011;51033;42.648;23.292;2022-08-19T03:22:38;5.60;;;4.60;;
30934;SDS011;51033;42.648;23.292;2022-08-19T03:25:04;4.97;;;4.40;;
30934;SDS011;51033;42.648;23.292;2022-08-19T03:27:29;5.15;;;4.50;;
30934;SDS011;51033;42.648;23.292;2022-08-19T03:29:55;4.60;;;4.05;;
30934;SDS011;51033;42.648;23.292;2022-08-19T03:32:21;4.72;;;4.32;;
30934;SDS011;51033;42.648;23.292;2022-08-19T03:34:47;5.22;;;4.72;;
30934;SDS011;51033;42.648;23.292;2022-08-19T03:37:14;9.73;;;5.07;;
30934;SDS011;51033;42.648;23.292;2022-08-19T03:39:40;5.80;;;4.53;;
30934;SDS011;51033;42.648;23.292;2022-08-19T03:42:07;5.90;;;5.13;;
30934;SDS011;51033;42.648;23.292;2022-08-19T03:44:33;4.93;;;4.20;;
30934;SDS011;51033;42.648;23.292;2022-08-19T03:47:02;5.60;;;5.05;;
30934;SDS011;51033;42.648;23.292;2022-08-19T03:49:29;7.97;;;4.13;;
30934;SDS011;51033;42.648;23.292;2022-08-19T03:51:57;5.47;;;4.30;;
30934;SDS011;51033;42.648;23.292;2022-08-19T03:54:25;4.53;;;4.13;;
30934;SDS011;51033;42.648;23.292;2022-08-19T03:56:53;4.90;;;4.40;;
30934;SDS011;51033;42.648;23.292;2022-08-19T03:59:24;4.35;;;3.95;;
30934;SDS011;51033;42.648;23.292;2022-08-19T04:01:57;6.35;;;5.38;;
30934;SDS011;51033;42.648;23.292;2022-08-19T04:04:25;4.65;;;4.18;;
30934;SDS011;51033;42.648;23.292;2022-08-19T04:06:51;6.78;;;4.47;;
30934;SDS011;51033;42.648;23.292;2022-08-19T04:09:17;5.05;;;4.55;;
30934;SDS011;51033;42.648;23.292;2022-08-19T04:11:48;5.93;;;4.45;;
30934;SDS011;51033;42.648;23.292;2022-08-19T04:14:19;6.72;;;4.75;;
30934;SDS011;51033;42.648;23.292;2022-08-19T04:16:48;7.45;;;3.95;;
30934;SDS011;51033;42.648;23.292;2022-08-19T04:19:14;6.43;;;4.32;;
30934;SDS011;51033;42.648;23.292;2022-08-19T04:21:46;5.90;;;4.65;;
30934;SDS011;51033;42.648;23.292;2022-08-19T04:24:13;8.82;;;4.88;;
30934;SDS011;51033;42.648;23.292;2022-08-19T04:26:39;5.88;;;4.18;;
30934;SDS011;51033;42.648;23.292;2022-08-19T04:29:13;5.45;;;3.83;;
30934;SDS011;51033;42.648;23.292;2022-08-19T04:31:40;4.80;;;4.00;;
30934;SDS011;51033;42.648;23.292;2022-08-19T04:34:09;5.30;;;3.50;;
30934;SDS011;51033;42.648;23.292;2022-08-19T04:36:36;4.32;;;3.92;;
30934;SDS011;51033;42.648;23.292;2022-08-19T04:39:05;6.55;;;4.35;;
30934;SDS011;51033;42.648;23.292;2022-08-19T04:41:33;6.63;;;4.72;;
30934;SDS011;51033;42.648;23.292;2022-08-19T04:44:17;4.80;;;4.13;;
30934;SDS011;51033;42.648;23.292;2022-08-19T04:46:44;5.07;;;4.57;;
30934;SDS011;51033;42.648;23.292;2022-08-19T04:49:10;5.05;;;4.55;;
30934;SDS011;51033;42.648;23.292;2022-08-19T04:51:36;6.22;;;5.22;;
30934;SDS011;51033;42.648;23.292;2022-08-19T04:54:04;8.93;;;4.80;;
30934;SDS011;51033;42.648;23.292;2022-08-19T04:56:30;7.25;;;5.55;;
30934;SDS011;51033;42.648;23.292;2022-08-19T04:58:56;8.68;;;5.38;;
30934;SDS011;51033;42.648;23.292;2022-08-19T05:01:26;8.30;;;6.03;;
30934;SDS011;51033;42.648;23.292;2022-08-19T05:03:57;10.95;;;6.88;;
30934;SDS011;51033;42.648;23.292;2022-08-19T05:06:23;7.05;;;6.10;;
30934;SDS011;51033;42.648;23.292;2022-08-19T05:08:50;9.43;;;5.65;;
30934;SDS011;51033;42.648;23.292;2022-08-19T05:11:17;6.72;;;4.95;;
30934;SDS011;51033;42.648;23.292;2022-08-19T05:13:45;10.18;;;6.03;;
30934;SDS011;51033;42.648;23.292;2022-08-19T05:16:12;6.57;;;4.65;;
30934;SDS011;51033;42.648;23.292;2022-08-19T05:18:40;8.00;;;4.70;;
30934;SDS011;51033;42.648;23.292;2022-08-19T05:21:28;6.95;;;5.40;;
30934;SDS011;51033;42.648;23.292;2022-08-19T05:24:13;5.75;;;5.13;;
30934;SDS011;51033;42.648;23.292;2022-08-19T05:26:40;7.03;;;4.45;;
30934;SDS011;51033;42.648;23.292;2022-08-19T05:29:11;7.50;;;5.50;;
30934;SDS011;51033;42.648;23.292;2022-08-19T05:31:38;5.75;;;4.72;;
30934;SDS011;51033;42.648;23.292;2022-08-19T05:34:04;10.48;;;6.00;;
30934;SDS011;51033;42.648;23.292;2022-08-19T05:36:35;6.78;;;4.85;;
30934;SDS011;51033;42.648;23.292;2022-08-19T05:39:08;6.80;;;5.28;;
30934;SDS011;51033;42.648;23.292;2022-08-19T05:41:48;6.53;;;4.38;;
30934;SDS011;51033;42.648;23.292;2022-08-19T05:44:16;6.40;;;5.30;;
30934;SDS011;51033;42.648;23.292;2022-08-19T05:46:43;6.28;;;5.68;;
30934;SDS011;51033;42.648;23.292;2022-08-19T05:49:12;7.72;;;4.93;;
30934;SDS011;51033;42.648;23.292;2022-08-19T05:51:38;6.97;;;5.93;;
30934;SDS011;51033;42.648;23.292;2022-08-19T05:54:06;7.15;;;5.25;;
30934;SDS011;51033;42.648;23.292;2022-08-19T05:56:35;5.68;;;4.90;;
30934;SDS011;51033;42.648;23.292;2022-08-19T05:59:04;7.00;;;5.65;;
30934;SDS011;51033;42.648;23.292;2022-08-19T06:01:33;8.70;;;5.93;;
30934;SDS011;51033;42.648;23.292;2022-08-19T06:03:59;6.85;;;5.55;;
30934;SDS011;51033;42.648;23.292;2022-08-19T06:06:25;9.85;;;5.63;;
30934;SDS011;51033;42.648;23.292;2022-08-19T06:08:50;6.18;;;5.57;;
30934;SDS011;51033;42.648;23.292;2022-08-19T06:11:20;10.38;;;5.43;;
30934;SDS011;51033;42.648;23.292;2022-08-19T06:13:47;7.30;;;5.13;;
30934;SDS011;51033;42.648;23.292;2022-08-19T06:16:16;7.65;;;5.60;;
30934;SDS011;51033;42.648;23.292;2022-08-19T06:18:49;6.93;;;6.00;;
30934;SDS011;51033;42.648;23.292;2022-08-19T06:21:20;9.52;;;5.93;;
30934;SDS011;51033;42.648;23.292;2022-08-19T06:23:47;8.95;;;5.95;;
30934;SDS011;51033;42.648;23.292;2022-08-19T06:26:14;8.10;;;5.53;;
30934;SDS011;51033;42.648;23.292;2022-08-19T06:28:40;8.88;;;6.50;;
30934;SDS011;51033;42.648;23.292;2022-08-19T06:31:10;12.40;;;6.65;;
30934;SDS011;51033;42.648;23.292;2022-08-19T06:33:36;13.75;;;6.90;;
30934;SDS011;51033;42.648;23.292;2022-08-19T06:36:02;7.93;;;6.13;;
30934;SDS011;51033;42.648;23.292;2022-08-19T06:38:28;6.65;;;5.85;;
30934;SDS011;51033;42.648;23.292;2022-08-19T06:41:00;11.60;;;7.35;;
30934;SDS011;51033;42.648;23.292;2022-08-19T06:43:27;8.88;;;6.10;;
30934;SDS011;51033;42.648;23.292;2022-08-19T06:45:53;6.88;;;5.82;;
30934;SDS011;51033;42.648;23.292;2022-08-19T06:48:18;7.35;;;5.90;;
30934;SDS011;51033;42.648;23.292;2022-08-19T06:50:44;8.32;;;5.53;;
30934;SDS011;51033;42.648;23.292;2022-08-19T06:53:09;10.27;;;6.60;;
30934;SDS011;51033;42.648;23.292;2022-08-19T06:55:35;8.77;;;6.40;;
30934;SDS011;51033;42.648;23.292;2022-08-19T06:58:02;7.97;;;5.53;;
30934;SDS011;51033;42.648;23.292;2022-08-19T07:00:31;7.88;;;5.25;;
30934;SDS011;51033;42.648;23.292;2022-08-19T07:02:57;6.00;;;5.07;;
30934;SDS011;51033;42.648;23.292;2022-08-19T07:05:23;7.30;;;4.97;;
30934;SDS011;51033;42.648;23.292;2022-08-19T07:07:49;9.10;;;5.97;;
30934;SDS011;51033;42.648;23.292;2022-08-19T07:10:14;9.13;;;5.25;;
30934;SDS011;51033;42.648;23.292;2022-08-19T07:12:44;9.77;;;6.10;;
30934;SDS011;51033;42.648;23.292;2022-08-19T07:15:09;10.23;;;6.53;;
30934;SDS011;51033;42.648;23.292;2022-08-19T07:17:36;6.97;;;6.07;;
30934;SDS011;51033;42.648;23.292;2022-08-19T07:20:04;5.68;;;4.95;;
30934;SDS011;51033;42.648;23.292;2022-08-19T07:22:31;6.55;;;5.28;;
30934;SDS011;51033;42.648;23.292;2022-08-19T07:24:58;10.60;;;5.50;;
30934;SDS011;51033;42.648;23.292;2022-08-19T07:27:25;12.05;;;5.93;;
30934;SDS011;51033;42.648;23.292;2022-08-19T07:29:50;8.57;;;5.53;;
30934;SDS011;51033;42.648;23.292;2022-08-19T07:32:17;9.73;;;5.40;;
30934;SDS011;51033;42.648;23.292;2022-08-19T07:34:43;6.90;;;5.97;;
30934;SDS011;51033;42.648;23.292;2022-08-19T07:37:08;6.00;;;5.40;;
30934;SDS011;51033;42.648;23.292;2022-08-19T07:39:35;6.72;;;5.05;;
30934;SDS011;51033;42.648;23.292;2022-08-19T07:42:05;8.38;;;6.18;;
30934;SDS011;51033;42.648;23.292;2022-08-19T07:44:32;5.95;;;4.97;;
30934;SDS011;51033;42.648;23.292;2022-08-19T07:46:58;7.00;;;5.20;;
30934;SDS011;51033;42.648;23.292;2022-08-19T07:49:25;8.52;;;5.38;;
30934;SDS011;51033;42.648;23.292;2022-08-19T07:51:55;6.28;;;5.10;;
30934;SDS011;51033;42.648;23.292;2022-08-19T07:54:24;8.70;;;5.75;;
30934;SDS011;51033;42.648;23.292;2022-08-19T07:56:52;8.35;;;5.25;;
30934;SDS011;51033;42.648;23.292;2022-08-19T07:59:19;9.88;;;4.97;;
30934;SDS011;51033;42.648;23.292;2022-08-19T08:01:46;9.77;;;5.57;;
30934;SDS011;51033;42.648;23.292;2022-08-19T08:04:13;7.18;;;5.38;;
30934;SDS011;51033;42.648;23.292;2022-08-19T08:06:57;5.90;;;4.82;;
30934;SDS011;51033;42.648;23.292;2022-08-19T08:09:42;7.75;;;5.40;;
30934;SDS011;51033;42.648;23.292;2022-08-19T08:12:13;6.43;;;5.10;;
30934;SDS011;51033;42.648;23.292;2022-08-19T08:14:45;8.23;;;5.38;;
30934;SDS011;51033;42.648;23.292;2022-08-19T08:17:14;8.73;;;5.05;;
30934;SDS011;51033;42.648;23.292;2022-08-19T08:19:41;5.60;;;4.10;;
30934;SDS011;51033;42.648;23.292;2022-08-19T08:22:08;7.45;;;5.20;;
30934;SDS011;51033;42.648;23.292;2022-08-19T08:24:54;5.03;;;4.13;;
30934;SDS011;51033;42.648;23.292;2022-08-19T08:27:23;21.75;;;5.40;;
30934;SDS011;51033;42.648;23.292;2022-08-19T08:29:49;5.72;;;3.75;;
30934;SDS011;51033;42.648;23.292;2022-08-19T08:32:14;7.10;;;4.55;;
30934;SDS011;51033;42.648;23.292;2022-08-19T08:34:39;7.10;;;4.05;;
30934;SDS011;51033;42.648;23.292;2022-08-19T08:37:05;6.68;;;3.97;;
30934;SDS011;51033;42.648;23.292;2022-08-19T08:39:30;5.28;;;3.58;;
30934;SDS011;51033;42.648;23.292;2022-08-19T08:41:58;12.60;;;4.45;;
30934;SDS011;51033;42.648;23.292;2022-08-19T08:47:02;3.90;;;3.15;;
30934;SDS011;51033;42.648;23.292;2022-08-19T08:52:22;3.90;;;3.45;;
30934;SDS011;51033;42.648;23.292;2022-08-19T08:54:52;3.08;;;2.78;;
30934;SDS011;51033;42.648;23.292;2022-08-19T09:00:03;5.20;;;3.83;;
30934;SDS011;51033;42.648;23.292;2022-08-19T09:02:33;7.18;;;4.45;;
30934;SDS011;51033;42.648;23.292;2022-08-19T09:04:59;5.22;;;3.95;;
30934;SDS011;51033;42.648;23.292;2022-08-19T09:09:51;4.63;;;3.22;;
30934;SDS011;51033;42.648;23.292;2022-08-19T09:12:27;3.95;;;2.70;;
30934;SDS011;51033;42.648;23.292;2022-08-19T09:15:12;3.15;;;2.50;;
30934;SDS011;51033;42.648;23.292;2022-08-19T09:17:39;3.00;;;2.33;;
30934;SDS011;51033;42.648;23.292;2022-08-19T09:22:47;3.35;;;3.05;;
30934;SDS011;51033;42.648;23.292;2022-08-19T09:25:15;3.00;;;2.70;;
30934;SDS011;51033;42.648;23.292;2022-08-19T09:27:42;3.17;;;2.80;;
30934;SDS011;51033;42.648;23.292;2022-08-19T09:30:18;3.65;;;3.20;;
30934;SDS011;51033;42.648;23.292;2022-08-19T09:32:48;3.20;;;2.58;;
30934;SDS011;51033;42.648;23.292;2022-08-19T09:35:14;5.15;;;3.22;;
30934;SDS011;51033;42.648;23.292;2022-08-19T09:37:40;3.20;;;2.50;;
30934;SDS011;51033;42.648;23.292;2022-08-19T09:40:06;5.20;;;2.53;;
30934;SDS011;51033;42.648;23.292;2022-08-19T09:42:32;3.45;;;2.53;;
30934;SDS011;51033;42.648;23.292;2022-08-19T09:44:58;3.08;;;2.78;;
30934;SDS011;51033;42.648;23.292;2022-08-19T09:47:24;6.88;;;2.65;;
30934;SDS011;51033;42.648;23.292;2022-08-19T09:49:50;6.68;;;2.67;;
30934;SDS011;51033;42.648;23.292;2022-08-19T09:52:16;3.42;;;2.65;;
30934;SDS011;51033;42.648;23.292;2022-08-19T09:54:42;3.17;;;2.63;;
30934;SDS011;51033;42.648;23.292;2022-08-19T09:57:08;5.05;;;3.22;;
30934;SDS011;51033;42.648;23.292;2022-08-19T09:59:33;3.67;;;2.75;;
30934;SDS011;51033;42.648;23.292;2022-08-19T10:01:59;2.88;;;2.40;;
30934;SDS011;51033;42.648;23.292;2022-08-19T10:04:24;3.20;;;2.55;;
30934;SDS011;51033;42.648;23.292;2022-08-19T10:07:10;3.58;;;2.90;;
30934;SDS011;51033;42.648;23.292;2022-08-19T10:09:35;4.55;;;3.10;;
30934;SDS011;51033;42.648;23.292;2022-08-19T10:12:02;3.50;;;2.92;;
30934;SDS011;51033;42.648;23.292;2022-08-19T10:14:29;2.72;;;2.53;;
30934;SDS011;51033;42.648;23.292;2022-08-19T10:16:56;7.22;;;3.00;;
30934;SDS011;51033;42.648;23.292;2022-08-19T10:19:22;6.55;;;2.40;;
30934;SDS011;51033;42.648;23.292;2022-08-19T10:21:48;3.25;;;2.75;;
30934;SDS011;51033;42.648;23.292;2022-08-19T10:24:13;3.45;;;2.97;;
30934;SDS011;51033;42.648;23.292;2022-08-19T10:26:39;3.65;;;3.10;;
30934;SDS011;51033;42.648;23.292;2022-08-19T10:29:11;3.70;;;3.30;;
30934;SDS011;51033;42.648;23.292;2022-08-19T10:31:37;5.38;;;3.35;;
30934;SDS011;51033;42.648;23.292;2022-08-19T10:34:03;5.50;;;3.22;;
30934;SDS011;51033;42.648;23.292;2022-08-19T10:36:30;6.32;;;3.90;;
30934;SDS011;51033;42.648;23.292;2022-08-19T10:38:58;4.05;;;2.88;;
30934;SDS011;51033;42.648;23.292;2022-08-19T10:41:26;3.45;;;3.00;;
30934;SDS011;51033;42.648;23.292;2022-08-19T10:43:54;3.63;;;3.20;;
30934;SDS011;51033;42.648;23.292;2022-08-19T10:46:23;4.13;;;3.55;;
30934;SDS011;51033;42.648;23.292;2022-08-19T10:48:50;3.72;;;3.08;;
30934;SDS011;51033;42.648;23.292;2022-08-19T10:51:16;4.20;;;3.28;;
30934;SDS011;51033;42.648;23.292;2022-08-19T10:54:01;4.78;;;3.72;;
30934;SDS011;51033;42.648;23.292;2022-08-19T10:56:28;3.58;;;2.92;;
30934;SDS011;51033;42.648;23.292;2022-08-19T10:59:14;4.50;;;3.38;;
30934;SDS011;51033;42.648;23.292;2022-08-19T11:01:42;3.25;;;2.95;;
30934;SDS011;51033;42.648;23.292;2022-08-19T11:04:11;4.68;;;3.35;;
30934;SDS011;51033;42.648;23.292;2022-08-19T11:06:38;3.40;;;3.10;;
30934;SDS011;51033;42.648;23.292;2022-08-19T11:09:08;5.47;;;3.45;;
30934;SDS011;51033;42.648;23.292;2022-08-19T11:11:35;4.05;;;3.33;;
30934;SDS011;51033;42.648;23.292;2022-08-19T11:14:05;3.63;;;3.17;;
30934;SDS011;51033;42.648;23.292;2022-08-19T11:16:35;5.68;;;3.30;;
30934;SDS011;51033;42.648;23.292;2022-08-19T11:19:03;3.80;;;3.13;;
30934;SDS011;51033;42.648;23.292;2022-08-19T11:21:30;3.88;;;3.03;;
30934;SDS011;51033;42.648;23.292;2022-08-19T11:23:59;4.18;;;3.75;;
30934;SDS011;51033;42.648;23.292;2022-08-19T11:26:27;3.83;;;2.67;;
30934;SDS011;51033;42.648;23.292;2022-08-19T11:28:54;3.90;;;3.30;;
30934;SDS011;51033;42.648;23.292;2022-08-19T11:31:21;3.85;;;3.10;;
30934;SDS011;51033;42.648;23.292;2022-08-19T11:33:50;4.63;;;3.55;;
30934;SDS011;51033;42.648;23.292;2022-08-19T11:36:16;4.55;;;2.78;;
30934;SDS011;51033;42.648;23.292;2022-08-19T11:38:42;4.80;;;3.03;;
30934;SDS011;51033;42.648;23.292;2022-08-19T11:41:09;3.70;;;3.35;;
30934;SDS011;51033;42.648;23.292;2022-08-19T11:43:35;4.03;;;3.10;;
30934;SDS011;51033;42.648;23.292;2022-08-19T11:46:05;4.40;;;3.60;;
30934;SDS011;51033;42.648;23.292;2022-08-19T11:48:32;3.92;;;3.10;;
30934;SDS011;51033;42.648;23.292;2022-08-19T11:50:57;3.80;;;3.13;;
30934;SDS011;51033;42.648;23.292;2022-08-19T11:53:23;4.13;;;3.58;;
30934;SDS011;51033;42.648;23.292;2022-08-19T11:55:49;4.75;;;3.10;;
30934;SDS011;51033;42.648;23.292;2022-08-19T11:58:20;4.72;;;3.22;;
30934;SDS011;51033;42.648;23.292;2022-08-19T12:00:46;4.15;;;3.75;;
30934;SDS011;51033;42.648;23.292;2022-08-19T12:03:12;4.75;;;3.90;;
30934;SDS011;51033;42.648;23.292;2022-08-19T12:05:39;4.20;;;3.35;;
30934;SDS011;51033;42.648;23.292;2022-08-19T12:08:07;10.05;;;3.78;;
30934;SDS011;51033;42.648;23.292;2022-08-19T12:10:36;4.68;;;3.30;;
30934;SDS011;51033;42.648;23.292;2022-08-19T12:13:02;3.63;;;3.15;;
30934;SDS011;51033;42.648;23.292;2022-08-19T12:15:37;3.42;;;3.03;;
30934;SDS011;51033;42.648;23.292;2022-08-19T12:18:06;3.83;;;3.17;;
30934;SDS011;51033;42.648;23.292;2022-08-19T12:20:35;5.07;;;3.28;;
30934;SDS011;51033;42.648;23.292;2022-08-19T12:23:03;5.32;;;3.60;;
30934;SDS011;51033;42.648;23.292;2022-08-19T12:25:29;4.00;;;3.05;;
30934;SDS011;51033;42.648;23.292;2022-08-19T12:27:56;5.65;;;3.53;;
30934;SDS011;51033;42.648;23.292;2022-08-19T12:30:22;3.42;;;3.13;;
30934;SDS011;51033;42.648;23.292;2022-08-19T12:32:48;4.57;;;3.22;;
30934;SDS011;51033;42.648;23.292;2022-08-19T12:35:16;3.63;;;3.22;;
30934;SDS011;51033;42.648;23.292;2022-08-19T12:37:45;3.80;;;2.95;;
30934;SDS011;51033;42.648;23.292;2022-08-19T12:40:11;4.53;;;3.83;;
30934;SDS011;51033;42.648;23.292;2022-08-19T12:42:38;4.65;;;3.42;;
30934;SDS011;51033;42.648;23.292;2022-08-19T12:45:11;4.43;;;3.42;;
30934;SDS011;51033;42.648;23.292;2022-08-19T12:47:37;6.63;;;3.50;;
30934;SDS011;51033;42.648;23.292;2022-08-19T12:50:06;4.15;;;3.72;;
30934;SDS011;51033;42.648;23.292;2022-08-19T12:52:33;3.92;;;3.33;;
30934;SDS011;51033;42.648;23.292;2022-08-19T12:55:04;4.10;;;3.70;;
30934;SDS011;51033;42.648;23.292;2022-08-19T12:57:31;4.63;;;3.08;;
30934;SDS011;51033;42.648;23.292;2022-08-19T13:00:10;5.32;;;3.13;;
30934;SDS011;51033;42.648;23.292;2022-08-19T13:02:39;4.82;;;2.40;;
30934;SDS011;51033;42.648;23.292;2022-08-19T13:05:07;7.25;;;3.47;;
30934;SDS011;51033;42.648;23.292;2022-08-19T13:07:35;4.82;;;3.33;;
30934;SDS011;51033;42.648;23.292;2022-08-19T13:10:03;5.47;;;2.67;;
30934;SDS011;51033;42.648;23.292;2022-08-19T13:12:34;6.45;;;2.88;;
30934;SDS011;51033;42.648;23.292;2022-08-19T13:15:00;4.18;;;3.50;;
30934;SDS011;51033;42.648;23.292;2022-08-19T13:17:25;4.20;;;2.90;;
30934;SDS011;51033;42.648;23.292;2022-08-19T13:19:52;4.03;;;3.28;;
30934;SDS011;51033;42.648;23.292;2022-08-19T13:22:17;3.70;;;3.17;;
30934;SDS011;51033;42.648;23.292;2022-08-19T13:24:42;4.43;;;3.40;;
30934;SDS011;51033;42.648;23.292;2022-08-19T13:27:08;3.95;;;3.63;;
30934;SDS011;51033;42.648;23.292;2022-08-19T13:29:33;4.07;;;3.22;;
30934;SDS011;51033;42.648;23.292;2022-08-19T13:32:18;3.00;;;2.75;;
30934;SDS011;51033;42.648;23.292;2022-08-19T13:35:04;4.90;;;2.53;;
30934;SDS011;51033;42.648;23.292;2022-08-19T13:37:30;5.13;;;4.05;;
30934;SDS011;51033;42.648;23.292;2022-08-19T13:40:11;5.07;;;3.42;;
30934;SDS011;51033;42.648;23.292;2022-08-19T13:42:38;3.95;;;3.45;;
30934;SDS011;51033;42.648;23.292;2022-08-19T13:45:04;4.60;;;3.08;;
30934;SDS011;51033;42.648;23.292;2022-08-19T13:47:31;3.78;;;3.20;;
30934;SDS011;51033;42.648;23.292;2022-08-19T13:49:59;5.50;;;2.97;;
30934;SDS011;51033;42.648;23.292;2022-08-19T13:52:29;3.10;;;2.85;;
30934;SDS011;51033;42.648;23.292;2022-08-19T13:54:55;4.03;;;3.63;;
30934;SDS011;51033;42.648;23.292;2022-08-19T13:57:21;3.67;;;3.28;;
30934;SDS011;51033;42.648;23.292;2022-08-19T13:59:47;3.28;;;2.97;;
30934;SDS011;51033;42.648;23.292;2022-08-19T14:02:12;7.05;;;3.67;;
30934;SDS011;51033;42.648;23.292;2022-08-19T14:04:37;3.60;;;3.00;;
30934;SDS011;51033;42.648;23.292;2022-08-19T14:07:05;5.50;;;3.10;;
30934;SDS011;51033;42.648;23.292;2022-08-19T14:09:30;4.30;;;3.25;;
30934;SDS011;51033;42.648;23.292;2022-08-19T14:11:56;3.30;;;3.00;;
30934;SDS011;51033;42.648;23.292;2022-08-19T14:14:22;4.93;;;3.75;;
30934;SDS011;51033;42.648;23.292;2022-08-19T14:16:48;6.32;;;3.53;;
30934;SDS011;51033;42.648;23.292;2022-08-19T14:19:13;3.35;;;3.00;;
30934;SDS011;51033;42.648;23.292;2022-08-19T14:21:39;6.82;;;3.28;;
30934;SDS011;51033;42.648;23.292;2022-08-19T14:24:06;3.38;;;3.05;;
30934;SDS011;51033;42.648;23.292;2022-08-19T14:26:32;5.13;;;3.15;;
30934;SDS011;51033;42.648;23.292;2022-08-19T14:28:57;3.65;;;3.30;;
30934;SDS011;51033;42.648;23.292;2022-08-19T14:31:23;4.10;;;3.03;;
30934;SDS011;51033;42.648;23.292;2022-08-19T14:33:49;5.05;;;4.05;;
30934;SDS011;51033;42.648;23.292;2022-08-19T14:36:16;3.05;;;2.70;;
30934;SDS011;51033;42.648;23.292;2022-08-19T14:38:42;3.22;;;2.83;;
30934;SDS011;51033;42.648;23.292;2022-08-19T14:41:18;3.95;;;3.45;;
30934;SDS011;51033;42.648;23.292;2022-08-19T14:43:46;3.65;;;3.15;;
30934;SDS011;51033;42.648;23.292;2022-08-19T14:46:14;3.88;;;3.13;;
30934;SDS011;51033;42.648;23.292;2022-08-19T14:48:41;3.20;;;2.90;;
30934;SDS011;51033;42.648;23.292;2022-08-19T14:51:07;4.22;;;3.22;;
30934;SDS011;51033;42.648;23.292;2022-08-19T14:53:33;5.53;;;3.70;;